Time;durP1;ratioP1;P1;durP2;ratioP2;P2;SDS_P1;SDS_P2;PMS_P1;PMS_P2;Temp;Humidity;BMP_temperature;BMP_pressure;BME280_temperature;BME280_humidity;BME280_pressure;Samples;Min_cycle;Max_cycle;Signal;HPM_P1;HPM_P2
2023/05/08 00:00:33;;;;;;;17.27;11.32;;;12.10;99.90;;;;;;4979873;28;20137;-81
2023/05/08 00:03:19;;;;;;;17.58;12.70;;;12.00;99.90;;;;;;4993817;28;20141;-81
2023/05/08 00:06:06;;;;;;;14.80;11.70;;;12.00;99.90;;;;;;4993751;28;20081;-80
2023/05/08 00:08:55;;;;;;;16.67;11.93;;;12.00;99.90;;;;;;4986219;28;20149;-81
2023/05/08 00:11:41;;;;;;;16.85;11.55;;;12.00;99.90;;;;;;4980251;28;20061;-80
2023/05/08 00:14:38;;;;;;;15.30;11.30;;;11.90;99.90;;;;;;5008714;28;20146;-80
2023/05/08 00:17:24;;;;;;;23.52;12.93;;;11.90;99.90;;;;;;4992817;28;20097;-81
2023/05/08 00:20:11;;;;;;;16.45;11.10;;;11.80;99.90;;;;;;4993932;28;20077;-79
2023/05/08 00:22:58;;;;;;;17.25;11.32;;;11.90;99.90;;;;;;5010803;28;20058;-80
2023/05/08 00:25:44;;;;;;;15.77;11.57;;;11.80;99.90;;;;;;4992700;28;20053;-80
2023/05/08 00:28:30;;;;;;;17.83;12.68;;;11.80;99.90;;;;;;4995503;28;20058;-80
2023/05/08 00:31:17;;;;;;;17.20;13.05;;;11.80;99.90;;;;;;4993383;28;20112;-81
2023/05/08 00:34:03;;;;;;;17.00;12.48;;;11.70;99.90;;;;;;4992751;28;20060;-80
2023/05/08 00:36:49;;;;;;;16.73;12.68;;;11.70;99.90;;;;;;4993596;28;20108;-81
2023/05/08 00:39:36;;;;;;;19.30;13.63;;;11.70;99.90;;;;;;4980075;28;20136;-80
2023/05/08 00:42:21;;;;;;;18.92;13.30;;;11.60;99.90;;;;;;4993567;28;20553;-80
2023/05/08 00:45:08;;;;;;;16.92;13.27;;;11.60;99.90;;;;;;5011207;28;20057;-80
2023/05/08 00:47:54;;;;;;;19.20;12.68;;;11.50;99.90;;;;;;4979112;28;20157;-80
2023/05/08 00:50:40;;;;;;;19.25;13.55;;;11.50;99.90;;;;;;4992707;28;20446;-80
2023/05/08 00:53:34;;;;;;;17.08;12.75;;;11.40;99.90;;;;;;5010160;28;20065;-81
2023/05/08 00:56:22;;;;;;;19.00;13.18;;;11.40;99.90;;;;;;4992429;28;20085;-80
2023/05/08 00:59:11;;;;;;;24.20;14.57;;;11.30;99.90;;;;;;4992375;28;20141;-81
2023/05/08 01:01:58;;;;;;;20.63;13.55;;;11.30;99.90;;;;;;4992718;28;20949;-81
2023/05/08 01:04:47;;;;;;;19.20;13.35;;;11.30;99.90;;;;;;4992318;28;20050;-81
2023/05/08 01:07:33;;;;;;;20.30;13.57;;;11.20;99.90;;;;;;5010278;28;20068;-81
2023/05/08 01:10:18;;;;;;;19.02;13.43;;;11.20;99.90;;;;;;4993281;28;20116;-81
2023/05/08 01:13:17;;;;;;;19.67;13.80;;;11.20;99.90;;;;;;4987367;28;20046;-80
2023/05/08 01:16:14;;;;;;;21.38;13.93;;;11.20;99.90;;;;;;4993107;28;20058;-81
2023/05/08 01:19:34;;;;;;;20.92;14.05;;;11.10;99.90;;;;;;5010102;28;20066;-80
2023/05/08 01:22:38;;;;;;;21.55;14.25;;;11.10;99.90;;;;;;4978859;28;20050;-82
2023/05/08 01:25:51;;;;;;;18.77;13.57;;;11.00;99.90;;;;;;4980869;28;20053;-81
2023/05/08 01:29:18;;;;;;;19.08;12.77;;;11.00;99.90;;;;;;4996294;28;20061;-80
2023/05/08 01:32:16;;;;;;;21.02;15.18;;;11.00;99.90;;;;;;5013652;28;20049;-79
2023/05/08 01:35:17;;;;;;;21.38;14.40;;;10.90;99.90;;;;;;4996125;28;20088;-80
2023/05/08 01:38:13;;;;;;;18.75;13.32;;;10.90;99.90;;;;;;4981609;28;20498;-80
2023/05/08 01:41:10;;;;;;;20.67;14.73;;;10.90;99.90;;;;;;4996130;28;20053;-81
2023/05/08 01:44:14;;;;;;;17.77;13.23;;;10.80;99.90;;;;;;4981668;28;20140;-80
2023/05/08 01:47:11;;;;;;;17.52;12.25;;;10.80;99.90;;;;;;4995994;28;20489;-80
2023/05/08 01:50:29;;;;;;;21.50;15.32;;;10.80;99.90;;;;;;4995222;28;20081;-80
2023/05/08 01:53:51;;;;;;;17.83;12.88;;;10.80;99.90;;;;;;4993709;28;20111;-82
2023/05/08 01:56:39;;;;;;;21.45;14.38;;;10.70;99.90;;;;;;4952374;28;20042;-81
2023/05/08 01:59:27;;;;;;;21.52;13.52;;;10.70;99.90;;;;;;4996052;28;20054;-81
2023/05/08 02:02:14;;;;;;;22.60;15.20;;;10.70;99.90;;;;;;5010308;28;20057;-80
2023/05/08 02:05:07;;;;;;;20.98;14.00;;;10.70;99.90;;;;;;4995488;28;20057;-80
2023/05/08 02:07:54;;;;;;;21.10;14.60;;;10.60;99.90;;;;;;4968849;28;20140;-80
2023/05/08 02:10:42;;;;;;;19.90;13.85;;;10.60;99.90;;;;;;4994708;28;20398;-81
2023/05/08 02:13:30;;;;;;;21.23;14.40;;;10.60;99.90;;;;;;4994892;28;20050;-80
2023/05/08 02:16:19;;;;;;;21.88;14.48;;;10.60;99.90;;;;;;5013337;28;20151;-79
2023/05/08 02:19:07;;;;;;;21.58;14.82;;;10.50;99.90;;;;;;4976278;28;20391;-80
2023/05/08 02:21:55;;;;;;;20.52;14.27;;;10.50;99.90;;;;;;4988678;28;20049;-79
2023/05/08 02:24:45;;;;;;;20.27;14.55;;;10.50;99.90;;;;;;4995569;28;20069;-78
2023/05/08 02:27:32;;;;;;;18.83;14.10;;;10.50;99.90;;;;;;5012278;28;20158;-81
2023/05/08 02:30:23;;;;;;;22.95;14.18;;;10.50;99.90;;;;;;4995305;28;20041;-80
2023/05/08 02:33:10;;;;;;;22.50;13.80;;;10.50;99.90;;;;;;4994332;28;20046;-81
2023/05/08 02:35:58;;;;;;;21.27;14.55;;;10.40;99.90;;;;;;4995009;28;20058;-78
2023/05/08 02:38:51;;;;;;;24.58;15.68;;;10.40;99.90;;;;;;5001424;28;20062;-80
2023/05/08 02:41:41;;;;;;;21.40;14.73;;;10.40;99.90;;;;;;5016521;28;20054;-79
2023/05/08 02:44:27;;;;;;;23.13;15.23;;;10.30;99.90;;;;;;4994279;28;20050;-79
2023/05/08 02:47:19;;;;;;;21.73;15.48;;;10.30;99.90;;;;;;4980750;28;20049;-79
2023/05/08 02:50:28;;;;;;;21.17;14.77;;;10.30;99.90;;;;;;4980519;28;20082;-81
2023/05/08 02:53:40;;;;;;;21.13;14.82;;;10.20;99.90;;;;;;4993973;28;20057;-80
2023/05/08 02:56:57;;;;;;;24.20;15.07;;;10.20;99.90;;;;;;4997416;28;20049;-79
2023/05/08 02:59:53;;;;;;;;;;;10.20;99.90;;;;;;4994059;28;20057;-81
2023/05/08 03:02:41;;;;;;;;;;;10.10;99.90;;;;;;4994075;28;19925;-80
2023/05/08 03:05:34;;;;;;;23.42;15.70;;;10.10;99.90;;;;;;5010726;28;19936;-80
2023/05/08 03:08:28;;;;;;;21.58;15.52;;;10.10;99.90;;;;;;4994675;28;20064;-80
2023/05/08 03:11:21;;;;;;;23.93;15.43;;;10.10;99.90;;;;;;4994584;28;20140;-80
2023/05/08 03:14:14;;;;;;;21.27;14.98;;;10.00;99.90;;;;;;4994189;28;20089;-79
2023/05/08 03:17:06;;;;;;;21.00;14.45;;;10.00;99.90;;;;;;4993249;28;20498;-81
2023/05/08 03:19:56;;;;;;;20.90;14.63;;;10.00;99.90;;;;;;4979199;28;20141;-79
2023/05/08 03:22:45;;;;;;;24.20;15.15;;;10.00;99.90;;;;;;4980542;28;20057;-79
2023/05/08 03:25:37;;;;;;;23.60;16.27;;;10.00;99.90;;;;;;4994366;28;20521;-80
2023/05/08 03:28:23;;;;;;;22.98;15.52;;;10.00;99.90;;;;;;5011131;28;20050;-80
2023/05/08 03:31:10;;;;;;;23.27;15.95;;;9.90;99.90;;;;;;4981083;28;20077;-81
2023/05/08 03:33:56;;;;;;;25.60;14.60;;;9.90;99.90;;;;;;5010694;28;20125;-80
2023/05/08 03:36:43;;;;;;;20.92;14.43;;;9.90;99.90;;;;;;5012394;28;20058;-81
2023/05/08 03:39:29;;;;;;;21.90;15.30;;;9.90;99.90;;;;;;4993578;28;20085;-80
2023/05/08 03:42:20;;;;;;;22.73;15.18;;;9.90;99.90;;;;;;5010382;28;20553;-80
2023/05/08 03:45:08;;;;;;;24.90;15.75;;;9.90;99.90;;;;;;4996215;28;20112;-80
2023/05/08 03:47:54;;;;;;;26.02;14.80;;;9.90;99.90;;;;;;4992838;28;20057;-80
2023/05/08 03:50:41;;;;;;;23.55;14.50;;;9.90;99.90;;;;;;4992995;28;20061;-80
2023/05/08 03:53:32;;;;;;;21.75;15.25;;;9.80;99.90;;;;;;4979379;28;20097;-79
2023/05/08 03:56:19;;;;;;;23.45;16.23;;;9.90;99.90;;;;;;5011352;28;20132;-80
2023/05/08 03:59:18;;;;;;;23.48;16.33;;;9.80;99.90;;;;;;4979998;28;20490;-80
2023/05/08 04:02:18;;;;;;;22.35;14.50;;;9.80;99.90;;;;;;4993198;28;20045;-79
2023/05/08 04:05:13;;;;;;;22.25;14.55;;;9.80;99.90;;;;;;5009441;28;20058;-80
2023/05/08 04:08:27;;;;;;;22.10;15.32;;;9.80;99.90;;;;;;4979519;28;20085;-80
2023/05/08 04:11:25;;;;;;;23.05;15.30;;;9.80;99.90;;;;;;4993710;28;20132;-81
2023/05/08 04:14:17;;;;;;;25.30;15.63;;;9.80;99.90;;;;;;4993264;28;20058;-80
2023/05/08 04:17:10;;;;;;;24.15;15.25;;;9.80;99.90;;;;;;4992188;28;20050;-81
2023/05/08 04:20:02;;;;;;;22.92;16.00;;;9.80;99.90;;;;;;4992573;28;20089;-81
2023/05/08 04:22:51;;;;;;;20.55;14.65;;;9.80;99.90;;;;;;4995896;28;20422;-79
2023/05/08 04:25:43;;;;;;;19.75;14.77;;;9.80;99.90;;;;;;4993044;28;20406;-80
2023/05/08 04:28:29;;;;;;;26.02;15.40;;;9.80;99.90;;;;;;4993203;28;20149;-79
2023/05/08 04:31:18;;;;;;;20.70;14.23;;;9.80;99.90;;;;;;5009819;28;20045;-79
2023/05/08 04:34:04;;;;;;;21.45;14.20;;;9.80;99.90;;;;;;5010842;28;20092;-81
2023/05/08 04:36:50;;;;;;;22.58;15.07;;;9.80;99.90;;;;;;4993386;28;20054;-80
2023/05/08 04:39:36;;;;;;;20.80;14.50;;;9.80;99.90;;;;;;5010691;28;20089;-80
2023/05/08 04:42:23;;;;;;;21.20;14.57;;;9.90;99.90;;;;;;4979194;28;20824;-80
2023/05/08 04:45:10;;;;;;;20.08;13.77;;;9.90;99.90;;;;;;4992477;28;20697;-78
2023/05/08 04:47:56;;;;;;;22.02;14.63;;;10.00;99.90;;;;;;4992479;28;20084;-79
2023/05/08 04:50:43;;;;;;;22.00;14.68;;;10.00;99.90;;;;;;4991936;28;20062;-80
2023/05/08 04:53:29;;;;;;;22.38;14.77;;;10.10;99.90;;;;;;4978552;28;20058;-79
2023/05/08 04:56:18;;;;;;;21.98;14.15;;;10.10;99.90;;;;;;4979825;28;20096;-81
2023/05/08 04:59:04;;;;;;;25.48;14.95;;;10.20;99.90;;;;;;4992743;28;20049;-80
2023/05/08 05:01:50;;;;;;;22.05;14.85;;;10.20;99.90;;;;;;4983558;28;20054;-81
2023/05/08 05:04:36;;;;;;;18.98;13.23;;;10.30;99.90;;;;;;4995818;28;20649;-81
2023/05/08 05:07:22;;;;;;;21.70;14.10;;;10.40;99.90;;;;;;4996093;28;20081;-81
2023/05/08 05:10:09;;;;;;;20.90;14.15;;;10.40;99.90;;;;;;4996047;28;20060;-80
2023/05/08 05:12:55;;;;;;;19.67;13.63;;;10.50;99.90;;;;;;4993956;28;20073;-80
2023/05/08 05:15:41;;;;;;;19.23;13.52;;;10.60;99.90;;;;;;4996465;28;20446;-81
2023/05/08 05:18:28;;;;;;;19.70;13.25;;;10.70;99.90;;;;;;5013517;28;20458;-79
2023/05/08 05:21:14;;;;;;;18.25;12.95;;;10.70;99.90;;;;;;5013590;28;20057;-80
2023/05/08 05:24:00;;;;;;;19.17;12.52;;;10.80;99.90;;;;;;4981230;28;20053;-80
2023/05/08 05:26:46;;;;;;;19.40;13.32;;;10.80;99.90;;;;;;4996457;28;20092;-81
2023/05/08 05:29:32;;;;;;;17.63;12.57;;;10.90;99.90;;;;;;4996607;28;20054;-79
2023/05/08 05:32:19;;;;;;;20.40;13.15;;;11.00;99.90;;;;;;4995990;28;20141;-81
2023/05/08 05:35:06;;;;;;;21.33;12.75;;;11.10;99.90;;;;;;4996212;28;20108;-80
2023/05/08 05:37:52;;;;;;;16.67;11.90;;;11.20;99.90;;;;;;5013505;28;20062;-79
2023/05/08 05:40:38;;;;;;;18.67;13.13;;;11.30;99.90;;;;;;4995880;28;20057;-81
2023/05/08 05:43:24;;;;;;;17.77;12.02;;;11.40;99.90;;;;;;5013357;28;20080;-81
2023/05/08 05:46:10;;;;;;;17.67;12.10;;;11.40;99.90;;;;;;4998067;28;20046;-81
2023/05/08 05:48:59;;;;;;;16.65;12.13;;;11.50;99.90;;;;;;4995561;28;20136;-79
2023/05/08 05:51:45;;;;;;;15.50;11.57;;;11.50;99.90;;;;;;4995964;28;20501;-79
2023/05/08 05:54:31;;;;;;;19.85;12.85;;;11.60;99.90;;;;;;4994565;28;20058;-82
2023/05/08 05:57:17;;;;;;;19.70;12.50;;;11.70;99.90;;;;;;4995664;28;20050;-79
2023/05/08 06:00:04;;;;;;;17.13;11.48;;;11.80;99.90;;;;;;4996526;28;20053;-80
2023/05/08 06:02:51;;;;;;;16.08;11.82;;;11.80;99.90;;;;;;5013276;28;20144;-80
2023/05/08 06:05:37;;;;;;;15.82;12.30;;;11.90;99.90;;;;;;4982072;28;20050;-80
2023/05/08 06:08:24;;;;;;;15.95;12.10;;;12.00;99.90;;;;;;4981579;28;20061;-81
2023/05/08 06:11:11;;;;;;;16.88;11.98;;;12.10;99.90;;;;;;5012563;28;20054;-81
2023/05/08 06:13:57;;;;;;;15.65;11.38;;;12.20;99.90;;;;;;4994594;28;20407;-82
2023/05/08 06:16:43;;;;;;;16.30;11.38;;;12.30;99.90;;;;;;4981224;28;20050;-80
2023/05/08 06:19:32;;;;;;;19.83;11.32;;;12.40;99.90;;;;;;4985340;28;20049;-81
2023/05/08 06:22:23;;;;;;;15.57;10.73;;;12.50;99.90;;;;;;4996003;28;20192;-80
2023/05/08 06:25:30;;;;;;;18.23;11.65;;;12.60;99.90;;;;;;4982228;28;20085;-80
2023/05/08 06:28:16;;;;;;;16.63;11.00;;;12.70;99.90;;;;;;4958269;28;20050;-80
2023/05/08 06:31:02;;;;;;;15.27;10.93;;;12.80;99.90;;;;;;4972094;28;20054;-79
2023/05/08 06:33:51;;;;;;;16.90;11.45;;;12.80;99.90;;;;;;4970761;28;20058;-80
2023/05/08 06:36:37;;;;;;;24.20;11.38;;;13.00;99.90;;;;;;4954226;28;20050;-80
2023/05/08 06:39:25;;;;;;;15.90;11.02;;;13.10;99.90;;;;;;4954386;28;20535;-79
2023/05/08 06:42:12;;;;;;;16.75;11.40;;;13.20;99.90;;;;;;4955042;28;20050;-80
2023/05/08 06:45:02;;;;;;;14.95;10.57;;;13.40;99.90;;;;;;4940933;28;20050;-80
2023/05/08 06:47:51;;;;;;;15.35;11.50;;;13.50;99.90;;;;;;4941475;28;20087;-81
2023/05/08 06:50:38;;;;;;;14.68;10.95;;;13.70;99.90;;;;;;4941719;28;20062;-82
2023/05/08 06:53:25;;;;;;;16.38;11.48;;;13.80;99.90;;;;;;4969782;28;20050;-81
2023/05/08 06:56:11;;;;;;;15.50;11.05;;;14.00;99.90;;;;;;4953703;28;20085;-80
2023/05/08 06:58:59;;;;;;;15.85;10.60;;;14.20;99.90;;;;;;4939795;28;20055;-80
2023/05/08 07:01:45;;;;;;;14.13;10.57;;;14.40;99.90;;;;;;4969658;28;20046;-82
2023/05/08 07:04:31;;;;;;;15.00;11.15;;;14.50;99.90;;;;;;4940318;28;20062;-82
2023/05/08 07:07:17;;;;;;;16.17;11.35;;;14.60;99.90;;;;;;4953372;28;20062;-81
2023/05/08 07:10:04;;;;;;;15.75;11.93;;;14.70;99.90;;;;;;4953210;28;20051;-81
2023/05/08 07:12:50;;;;;;;15.70;10.13;;;14.80;99.90;;;;;;4958521;28;20414;-81
2023/05/08 07:15:37;;;;;;;14.88;11.48;;;15.00;99.90;;;;;;4973830;28;20050;-80
2023/05/08 07:18:23;;;;;;;14.50;10.50;;;15.20;99.90;;;;;;4974571;28;20066;-81
2023/05/08 07:21:10;;;;;;;14.40;11.07;;;15.40;99.90;;;;;;4961536;28;20105;-81
2023/05/08 07:23:56;;;;;;;18.52;11.05;;;15.30;99.90;;;;;;4973746;28;20061;-81
2023/05/08 07:26:42;;;;;;;18.58;11.70;;;15.50;99.90;;;;;;4973755;28;20069;-82
2023/05/08 07:29:28;;;;;;;13.88;10.25;;;15.50;99.90;;;;;;4974477;28;20058;-81
2023/05/08 07:32:14;;;;;;;13.70;10.23;;;15.80;99.90;;;;;;4991126;28;20100;-82
2023/05/08 07:35:02;;;;;;;14.13;10.88;;;15.90;99.90;;;;;;4974565;28;20117;-81
2023/05/08 07:37:48;;;;;;;13.82;10.65;;;16.00;99.90;;;;;;4974280;28;20050;-81
2023/05/08 07:40:34;;;;;;;18.95;10.32;;;16.20;99.90;;;;;;4974982;28;20362;-81
2023/05/08 07:43:20;;;;;;;14.77;9.93;;;16.20;99.90;;;;;;4972951;28;20065;-82
2023/05/08 07:46:06;;;;;;;13.90;9.68;;;16.10;99.90;;;;;;4974043;28;20178;-80
2023/05/08 07:48:52;;;;;;;14.75;10.75;;;16.10;99.90;;;;;;4972640;28;20190;-80
2023/05/08 07:51:39;;;;;;;13.68;10.48;;;16.20;99.90;;;;;;4990989;28;20410;-81
2023/05/08 07:54:25;;;;;;;11.77;10.15;;;16.40;99.90;;;;;;4989891;28;20084;-81
2023/05/08 07:57:11;;;;;;;12.88;9.98;;;16.50;99.90;;;;;;4993395;28;20513;-81
2023/05/08 08:00:01;;;;;;;16.05;9.88;;;16.40;99.90;;;;;;4979660;28;20084;-82
2023/05/08 08:02:47;;;;;;;14.13;10.50;;;16.40;99.90;;;;;;4993204;28;20084;-81
2023/05/08 08:05:36;;;;;;;12.32;9.73;;;16.50;99.90;;;;;;4996191;28;20573;-81
2023/05/08 08:08:22;;;;;;;13.00;10.02;;;16.50;99.90;;;;;;4994714;28;20095;-81
2023/05/08 08:11:12;;;;;;;13.85;10.13;;;16.50;99.90;;;;;;4993529;28;20065;-81
2023/05/08 08:13:58;;;;;;;12.95;10.02;;;16.70;99.90;;;;;;4993316;28;20426;-82
2023/05/08 08:16:44;;;;;;;13.55;11.07;;;16.90;99.90;;;;;;4995271;28;20049;-82
2023/05/08 08:19:30;;;;;;;14.32;10.00;;;17.00;99.90;;;;;;4994607;28;20075;-82
2023/05/08 08:22:21;;;;;;;13.23;9.93;;;17.20;99.90;;;;;;4992940;28;20046;-80
2023/05/08 08:25:09;;;;;;;13.32;10.35;;;17.40;99.90;;;;;;4972756;28;20046;-81
2023/05/08 08:27:55;;;;;;;13.40;10.32;;;17.60;99.90;;;;;;4986344;28;20060;-81
2023/05/08 08:30:41;;;;;;;12.90;10.43;;;17.90;99.90;;;;;;4995607;28;20088;-82
2023/05/08 08:33:28;;;;;;;12.65;9.77;;;17.90;99.90;;;;;;5010309;28;20049;-81
2023/05/08 08:36:15;;;;;;;12.73;10.23;;;17.90;99.90;;;;;;4986492;28;20394;-81
2023/05/08 08:39:01;;;;;;;14.50;10.55;;;17.80;99.90;;;;;;5013967;28;20108;-81
2023/05/08 08:41:47;;;;;;;14.32;10.90;;;18.00;99.90;;;;;;4996926;28;20085;-81
2023/05/08 08:44:33;;;;;;;13.27;10.63;;;17.90;99.90;;;;;;4997412;28;20089;-80
2023/05/08 08:47:26;;;;;;;14.82;10.18;;;17.80;99.90;;;;;;4984254;28;20080;-81
2023/05/08 08:50:14;;;;;;;13.80;10.35;;;17.90;99.90;;;;;;4995787;28;20053;-81
2023/05/08 08:53:18;;;;;;;13.50;10.48;;;18.00;99.90;;;;;;4982272;28;20053;-82
2023/05/08 08:56:07;;;;;;;15.70;10.25;;;18.10;99.90;;;;;;4982820;28;20054;-81
2023/05/08 08:58:58;;;;;;;15.40;11.20;;;18.10;99.90;;;;;;4994845;28;20050;-80
2023/05/08 09:01:48;;;;;;;12.32;10.38;;;18.00;99.90;;;;;;5012432;28;20088;-82
2023/05/08 09:04:35;;;;;;;14.45;11.80;;;18.10;99.90;;;;;;4995076;28;20133;-82
2023/05/08 09:07:22;;;;;;;14.73;10.98;;;18.10;99.90;;;;;;4994366;28;20054;-82
2023/05/08 09:10:14;;;;;;;13.10;10.68;;;18.30;99.90;;;;;;4995584;28;20065;-82
2023/05/08 09:13:00;;;;;;;13.82;11.32;;;18.40;99.90;;;;;;4995307;28;20046;-81
2023/05/08 09:15:52;;;;;;;15.10;12.40;;;18.40;99.90;;;;;;4998421;28;20054;-81
2023/05/08 09:18:38;;;;;;;14.70;11.75;;;18.40;99.90;;;;;;4995243;28;20054;-82
2023/05/08 09:21:27;;;;;;;13.95;11.10;;;18.70;99.90;;;;;;4994776;28;20050;-81
2023/05/08 09:24:13;;;;;;;13.90;11.70;;;18.80;99.90;;;;;;5012306;28;20054;-81
2023/05/08 09:27:00;;;;;;;14.50;10.60;;;19.00;99.90;;;;;;4988732;28;20081;-81
2023/05/08 09:30:05;;;;;;;13.73;10.80;;;19.10;99.90;;;;;;5003596;28;20108;-82
2023/05/08 09:33:01;;;;;;;16.00;11.50;;;19.20;99.90;;;;;;4988232;28;20054;-82
2023/05/08 09:35:47;;;;;;;13.23;10.80;;;19.40;99.90;;;;;;4995083;28;20058;-81
2023/05/08 09:38:38;;;;;;;13.50;10.88;;;19.50;99.90;;;;;;5012068;28;20054;-81
2023/05/08 09:41:25;;;;;;;15.05;12.65;;;19.50;99.90;;;;;;4979592;28;20045;-82
2023/05/08 09:44:11;;;;;;;15.00;11.15;;;19.70;99.90;;;;;;5011132;28;20112;-82
2023/05/08 09:47:24;;;;;;;13.13;11.48;;;19.90;99.90;;;;;;5012892;28;20104;-82
2023/05/08 09:50:10;;;;;;;15.40;12.20;;;20.10;99.90;;;;;;4979908;28;20054;-81
2023/05/08 09:52:56;;;;;;;14.50;12.35;;;20.40;99.90;;;;;;4945402;28;1418617;-81
2023/05/08 09:55:47;;;;;;;16.65;13.07;;;20.50;99.90;;;;;;5012470;28;20061;-82
2023/05/08 09:58:41;;;;;;;14.18;11.88;;;20.70;99.90;;;;;;4995474;28;20064;-81
2023/05/08 10:01:29;;;;;;;14.70;12.00;;;20.80;99.90;;;;;;4994973;28;20052;-81
2023/05/08 10:04:15;;;;;;;17.25;11.63;;;20.80;99.90;;;;;;4981905;28;20046;-81
2023/05/08 10:07:02;;;;;;;13.43;11.32;;;20.80;99.90;;;;;;4995677;28;20054;-82
2023/05/08 10:09:57;;;;;;;13.40;10.90;;;21.00;99.90;;;;;;5004600;28;20697;-81
2023/05/08 10:12:44;;;;;;;14.63;11.90;;;21.00;99.90;;;;;;4981457;28;20053;-81
2023/05/08 10:15:33;;;;;;;15.98;11.77;;;21.10;99.90;;;;;;4982072;28;20100;-82
2023/05/08 10:18:24;;;;;;;17.50;11.95;;;21.20;99.90;;;;;;4994089;28;20057;-82
2023/05/08 10:21:12;;;;;;;17.35;12.18;;;21.50;99.90;;;;;;4994543;28;20042;-82
2023/05/08 10:24:03;;;;;;;15.82;11.80;;;21.60;99.90;;;;;;4994581;28;20131;-81
2023/05/08 10:27:09;;;;;;;15.98;11.57;;;21.70;99.90;;;;;;4987554;28;20050;-82
2023/05/08 10:30:00;;;;;;;17.08;11.63;;;21.90;99.90;;;;;;4981432;28;20141;-81
2023/05/08 10:32:51;;;;;;;17.45;11.95;;;22.10;99.90;;;;;;4982090;28;20061;-81
2023/05/08 10:35:38;;;;;;;16.45;12.43;;;22.40;98.80;;;;;;4995687;28;20085;-82
2023/05/08 10:38:25;;;;;;;17.80;11.38;;;22.40;99.40;;;;;;4994453;28;20049;-82
2023/05/08 10:41:12;;;;;;;18.30;12.35;;;22.70;99.20;;;;;;5013007;28;20160;-86
2023/05/08 10:43:59;;;;;;;13.38;11.05;;;22.70;99.30;;;;;;4979813;28;20148;-78
2023/05/08 10:46:58;;;;;;;17.77;12.32;;;23.20;99.80;;;;;;5011201;28;20046;-80
2023/05/08 10:50:09;;;;;;;17.00;12.65;;;23.60;98.40;;;;;;5012050;28;20473;-79
2023/05/08 10:53:17;;;;;;;15.23;13.38;;;23.80;97.10;;;;;;4993988;28;20177;-79
2023/05/08 10:56:04;;;;;;;15.98;12.45;;;23.80;96.90;;;;;;5009782;28;20057;-80
2023/05/08 10:58:56;;;;;;;16.65;12.43;;;24.20;97.40;;;;;;4989127;28;20149;-81
2023/05/08 11:01:48;;;;;;;15.90;13.23;;;24.50;96.20;;;;;;4996520;28;20104;-80
2023/05/08 11:04:35;;;;;;;16.38;13.45;;;24.60;96.90;;;;;;4994400;28;20050;-79
2023/05/08 11:07:49;;;;;;;13.75;12.02;;;25.00;96.40;;;;;;4992930;28;20502;-82
2023/05/08 11:10:35;;;;;;;18.23;11.82;;;25.30;95.60;;;;;;5011476;28;20060;-83
2023/05/08 11:13:27;;;;;;;17.10;11.65;;;25.80;95.20;;;;;;5012465;28;20050;-86
2023/05/08 11:16:13;;;;;;;13.27;11.25;;;25.90;94.00;;;;;;4988203;28;20084;-82
2023/05/08 11:19:16;;;;;;;15.23;12.57;;;26.20;93.80;;;;;;4975534;28;20050;-82
2023/05/08 11:22:35;;;;;;;17.23;12.93;;;26.50;93.30;;;;;;4990968;28;20050;-82
2023/05/08 11:25:42;;;;;;;23.90;12.75;;;26.60;92.70;;;;;;4962022;28;20089;-82
2023/05/08 11:28:36;;;;;;;16.35;13.05;;;26.80;92.90;;;;;;4974719;28;20123;-83
2023/05/08 11:31:43;;;;;;;15.00;11.20;;;26.70;92.10;;;;;;4972732;28;20050;-84
2023/05/08 11:34:43;;;;;;;14.48;11.93;;;26.80;92.50;;;;;;4974988;28;20105;-84
2023/05/08 11:37:33;;;;;;;14.35;12.27;;;27.20;91.90;;;;;;4973411;28;20100;-81
2023/05/08 11:40:46;;;;;;;12.13;10.70;;;27.20;91.80;;;;;;4991675;28;20093;-81
2023/05/08 11:43:32;;;;;;;18.00;13.20;;;27.20;91.90;;;;;;4973697;28;20074;-81
2023/05/08 11:46:20;;;;;;;13.52;11.05;;;26.80;90.70;;;;;;4974539;28;20058;-81
2023/05/08 11:49:11;;;;;;;13.95;11.60;;;26.90;91.40;;;;;;4990597;28;20410;-81
2023/05/08 11:51:58;;;;;;;12.98;10.88;;;26.90;92.10;;;;;;4961320;28;20047;-85
2023/05/08 11:54:44;;;;;;;14.73;11.95;;;27.20;92.10;;;;;;4973270;28;20046;-83
2023/05/08 11:57:33;;;;;;;13.02;10.88;;;27.40;91.30;;;;;;4959914;28;20089;-83
2023/05/08 12:00:21;;;;;;;13.00;11.57;;;27.60;91.30;;;;;;4960749;28;20054;-84
2023/05/08 12:03:10;;;;;;;12.18;10.82;;;27.50;90.70;;;;;;4992724;28;20064;-85
2023/05/08 12:05:58;;;;;;;19.90;11.82;;;27.50;89.90;;;;;;5007784;28;20167;-85
2023/05/08 12:08:44;;;;;;;14.13;11.77;;;27.20;90.20;;;;;;4991744;28;20081;-85
2023/05/08 12:11:31;;;;;;;14.90;11.73;;;27.50;90.30;;;;;;4989610;28;20045;-83
2023/05/08 12:14:17;;;;;;;12.18;10.57;;;28.10;91.20;;;;;;4978984;28;20088;-86
2023/05/08 12:17:03;;;;;;;28.13;12.52;;;28.00;90.20;;;;;;4988329;28;20414;-81
2023/05/08 12:20:14;;;;;;;22.70;12.10;;;27.60;90.10;;;;;;5001771;28;20387;-83
2023/05/08 12:23:02;;;;;;;13.13;11.38;;;27.50;89.20;;;;;;5007329;28;20445;-84
2023/05/08 12:25:54;;;;;;;12.63;11.27;;;27.90;89.40;;;;;;5010875;28;20056;-82
2023/05/08 12:28:45;;;;;;;18.63;12.30;;;28.00;88.50;;;;;;4992751;28;20054;-81
2023/05/08 12:31:33;;;;;;;14.25;11.57;;;28.30;89.40;;;;;;4991409;28;20054;-83
2023/05/08 12:34:20;;;;;;;15.00;12.57;;;28.20;89.40;;;;;;4995426;28;20081;-85
2023/05/08 12:37:06;;;;;;;14.40;11.90;;;28.10;87.60;;;;;;4993937;28;20058;-82
2023/05/08 12:39:52;;;;;;;15.05;11.27;;;28.30;87.60;;;;;;4992950;28;20104;-81
2023/05/08 12:42:48;;;;;;;14.57;12.00;;;28.10;88.20;;;;;;4966171;28;20058;-82
2023/05/08 12:45:38;;;;;;;14.95;12.52;;;28.00;88.00;;;;;;4992315;28;20133;-84
2023/05/08 12:48:27;;;;;;;15.85;12.77;;;28.30;88.30;;;;;;4979367;28;20144;-84
2023/05/08 12:51:16;;;;;;;16.13;12.32;;;27.90;87.90;;;;;;4992388;28;20162;-83
2023/05/08 12:54:02;;;;;;;14.05;11.80;;;27.60;89.20;;;;;;4990555;28;20058;-83
2023/05/08 12:56:49;;;;;;;16.63;13.65;;;27.40;89.20;;;;;;5007830;28;20093;-83
2023/05/08 12:59:35;;;;;;;15.27;12.60;;;27.30;88.80;;;;;;4990511;28;20052;-86
2023/05/08 13:02:22;;;;;;;18.08;12.73;;;26.90;89.10;;;;;;4977127;28;20081;-82
2023/05/08 13:05:08;;;;;;;18.20;13.75;;;26.60;89.40;;;;;;4978995;28;20429;-82
2023/05/08 13:08:02;;;;;;;15.82;13.07;;;26.20;90.50;;;;;;4977342;28;20052;-82
2023/05/08 13:10:54;;;;;;;58.15;14.00;;;25.90;91.00;;;;;;4992377;28;20066;-81
2023/05/08 13:13:40;;;;;;;24.05;13.77;;;25.70;91.70;;;;;;5008605;28;20137;-84
2023/05/08 13:16:26;;;;;;;15.68;13.20;;;25.30;91.90;;;;;;4992151;28;20108;-83
2023/05/08 13:19:16;;;;;;;14.90;12.32;;;25.30;92.20;;;;;;4979443;28;20402;-82
2023/05/08 13:22:02;;;;;;;17.85;13.85;;;25.10;92.50;;;;;;4996205;28;20108;-84
2023/05/08 13:24:49;;;;;;;17.73;14.05;;;25.00;92.70;;;;;;4995943;28;20069;-85
2023/05/08 13:27:35;;;;;;;15.48;12.75;;;24.60;92.80;;;;;;5013925;28;20379;-85
2023/05/08 13:30:21;;;;;;;28.73;14.75;;;24.50;93.70;;;;;;5013927;28;20086;-90
2023/05/08 13:33:07;;;;;;;19.80;13.95;;;24.70;93.90;;;;;;4997957;28;20144;-86
2023/05/08 13:35:55;;;;;;;17.45;14.02;;;25.10;93.30;;;;;;4996573;28;20081;-87
2023/05/08 13:38:41;;;;;;;17.08;14.00;;;24.90;93.00;;;;;;5003530;28;20088;-86
2023/05/08 13:41:30;;;;;;;17.88;13.98;;;24.90;93.50;;;;;;5015841;28;20390;-86
2023/05/08 13:44:18;;;;;;;23.10;12.63;;;25.20;93.40;;;;;;4991267;28;20528;-86
2023/05/08 13:47:04;;;;;;;98.80;19.27;;;25.20;93.40;;;;;;5002486;28;20112;-86
2023/05/08 13:49:50;;;;;;;17.35;14.52;;;24.60;93.50;;;;;;4994440;28;20455;-85
2023/05/08 13:52:37;;;;;;;21.42;15.45;;;24.40;93.50;;;;;;4998413;28;20514;-85
2023/05/08 13:55:25;;;;;;;23.90;14.82;;;24.10;94.00;;;;;;5019852;28;20111;-83
2023/05/08 13:58:11;;;;;;;23.65;14.82;;;24.00;94.20;;;;;;4981514;28;20050;-87
2023/05/08 14:00:57;;;;;;;22.85;14.05;;;23.80;94.30;;;;;;4997520;28;20430;-86
2023/05/08 14:03:46;;;;;;;20.05;15.05;;;23.90;94.90;;;;;;4982207;28;20045;-83
2023/05/08 14:06:32;;;;;;;17.40;13.52;;;25.00;94.50;;;;;;4994524;28;20049;-86
2023/05/08 14:09:18;;;;;;;22.45;15.00;;;26.10;93.00;;;;;;4995304;28;20272;-87
2023/05/08 14:12:04;;;;;;;17.58;13.75;;;25.80;92.60;;;;;;4995610;28;20166;-85
2023/05/08 14:14:50;;;;;;;18.60;14.48;;;25.50;92.80;;;;;;4996861;28;20081;-80
2023/05/08 14:17:36;;;;;;;17.40;13.50;;;25.30;93.00;;;;;;5011532;28;20054;-82
2023/05/08 14:20:24;;;;;;;92.65;20.45;;;24.70;93.00;;;;;;4980863;28;20141;-80
2023/05/08 14:23:10;;;;;;;23.65;14.80;;;24.70;93.80;;;;;;4995587;28;20774;-78